Topton, Pennsylvania
Current Conditions -  °F | °C
As of 5:15 AM on Thursday 29 Jan 2015 (Local Time) from KXLL Reporting Station
Clear Clear  
Wind Chill: 10°   Ceiling: Unl
Heat Index: 10°   Visibility: 10mi
Dew Point:   Wind: 0mph
Humidity: 73%   Direction: NA
Pressure: 30.31"   Gusts: NA
Location:  40.5°N, 75.7°W
Report Text: KXLL 291015Z AUTO 00000KT 10SM CLR M12/M16 A3031 RMK AO2
Loading
Personal Weather Stations






























Interactive Weather Map New forecast layout! Learn more

10-Day Weather Forecast

Advertisements
Track Severe Weather on mobile